This is the latest recevied weather packets stored in our database for station/object KE0SWK-13. If no packets are shown the sender has not sent any weather packets the latest 10 day(s).
| Time | Temp. | Humidity | Pressure | Rain* | Wind** | Luminosity | Snow |
|---|---|---|---|---|---|---|---|
| 1778201740 | 17.78° C | 49% | 1014 hPa | 0 mm | - | - | - |
| 1778199921 | 18.89° C | 45% | 1013.8 hPa | 0 mm | - | - | - |
| 1778196929 | 20.56° C | 41% | 1013.9 hPa | 0 mm | - | - | - |
| 1778195726 | 20.56° C | 40% | 1013.9 hPa | 0 mm | - | - | - |
| 1778195139 | 21.11° C | 41% | 1014 hPa | 0 mm | - | - | - |
| 1778193932 | 21.11° C | 41% | 1014.3 hPa | 0 mm | - | - | - |
| 1778189141 | 21.67° C | 41% | 1014.8 hPa | 0 mm | - | - | - |
| 1778185553 | 22.78° C | 40% | 1015.7 hPa | 0 mm | - | - | - |
| 1778183719 | 22.22° C | 40% | 1016.3 hPa | 0 mm | - | - | - |
| 1778180721 | 22.78° C | 39% | 1017.1 hPa | 0 mm | - | - | - |
| 1778178323 | 21.11° C | 40% | 1017.6 hPa | 0 mm | - | - | - |
| 1778177723 | 20° C | 40% | 1017.7 hPa | 0 mm | - | - | - |
| 1778176581 | 21.11° C | 41% | 1017.8 hPa | 0 mm | - | - | - |
| 1778174134 | 20.56° C | 39% | 1018.5 hPa | 0 mm | - | - | - |
| 1778166328 | 18.89° C | 44% | 1019.6 hPa | 0 mm | - | - | - |
| 1778165735 | 18.89° C | 44% | 1019.6 hPa | 0 mm | - | - | - |
| 1778160925 | 16.11° C | 50% | 1020.1 hPa | 0 mm | - | - | - |
| 1778154927 | 5° C | 90% | 1019.7 hPa | 0 mm | - | - | - |
| 1778150720 | 3.89° C | 92% | 1019.5 hPa | 0 mm | - | - | - |
| 1778147734 | 4.44° C | 90% | 1019.7 hPa | 0 mm | - | - | - |
| 1778145325 | 4.44° C | 86% | 1019.6 hPa | 0 mm | - | - | - |
| 1778144759 | 5° C | 86% | 1019.5 hPa | 0 mm | - | - | - |
| 1778138133 | 6.67° C | 82% | 1019.9 hPa | 0 mm | - | - | - |
| 1778132719 | 4.44° C | 91% | 1020.3 hPa | 0 mm | - | - | - |
| 1778128528 | 6.11° C | 84% | 1020.5 hPa | 0 mm | - | - | - |
* Rain latest hour (hover to see other rain measurements)
** Current wind speed in m/s (hover to see current wind gust speed)